sensor_id;sensor_type;location;lat;lon;timestamp;P1;durP1;ratioP1;P2;durP2;ratioP2
64669;SDS011;51080;51.690;5.174;2022-09-17T00:00:24;12.50;;;2.30;;
64669;SDS011;51080;51.690;5.174;2022-09-17T00:06:11;12.60;;;2.10;;
64669;SDS011;51080;51.690;5.174;2022-09-17T00:11:56;13.10;;;2.30;;
64669;SDS011;51080;51.690;5.174;2022-09-17T00:17:44;13.80;;;2.60;;
64669;SDS011;51080;51.690;5.174;2022-09-17T00:23:32;11.90;;;2.40;;
64669;SDS011;51080;51.690;5.174;2022-09-17T00:29:19;13.90;;;2.00;;
64669;SDS011;51080;51.690;5.174;2022-09-17T00:35:05;14.60;;;3.10;;
64669;SDS011;51080;51.690;5.174;2022-09-17T00:40:53;16.00;;;2.50;;
64669;SDS011;51080;51.690;5.174;2022-09-17T00:46:41;16.60;;;2.20;;
64669;SDS011;51080;51.690;5.174;2022-09-17T00:52:33;18.50;;;2.90;;
64669;SDS011;51080;51.690;5.174;2022-09-17T00:58:27;14.00;;;2.70;;
64669;SDS011;51080;51.690;5.174;2022-09-17T01:04:16;16.70;;;2.60;;
64669;SDS011;51080;51.690;5.174;2022-09-17T01:16:22;14.00;;;2.80;;
64669;SDS011;51080;51.690;5.174;2022-09-17T01:22:29;15.10;;;2.80;;
64669;SDS011;51080;51.690;5.174;2022-09-17T01:28:31;15.20;;;3.30;;
64669;SDS011;51080;51.690;5.174;2022-09-17T01:34:31;12.30;;;2.30;;
64669;SDS011;51080;51.690;5.174;2022-09-17T01:46:31;13.50;;;2.30;;
64669;SDS011;51080;51.690;5.174;2022-09-17T01:52:20;10.50;;;1.70;;
64669;SDS011;51080;51.690;5.174;2022-09-17T01:58:14;14.40;;;2.00;;
64669;SDS011;51080;51.690;5.174;2022-09-17T02:04:05;12.70;;;2.10;;
64669;SDS011;51080;51.690;5.174;2022-09-17T02:10:02;11.10;;;1.80;;
64669;SDS011;51080;51.690;5.174;2022-09-17T02:15:56;8.80;;;1.90;;
64669;SDS011;51080;51.690;5.174;2022-09-17T02:21:52;12.00;;;2.40;;
64669;SDS011;51080;51.690;5.174;2022-09-17T02:34:09;16.40;;;2.30;;
64669;SDS011;51080;51.690;5.174;2022-09-17T02:39:54;11.20;;;2.20;;
64669;SDS011;51080;51.690;5.174;2022-09-17T02:51:57;9.30;;;1.60;;
64669;SDS011;51080;51.690;5.174;2022-09-17T03:03:49;9.80;;;2.30;;
64669;SDS011;51080;51.690;5.174;2022-09-17T03:09:37;8.00;;;1.90;;
64669;SDS011;51080;51.690;5.174;2022-09-17T03:15:22;11.70;;;1.70;;
64669;SDS011;51080;51.690;5.174;2022-09-17T03:21:07;10.60;;;2.40;;
64669;SDS011;51080;51.690;5.174;2022-09-17T03:26:52;14.20;;;1.80;;
64669;SDS011;51080;51.690;5.174;2022-09-17T03:32:36;11.50;;;1.90;;
64669;SDS011;51080;51.690;5.174;2022-09-17T03:38:22;9.20;;;1.60;;
64669;SDS011;51080;51.690;5.174;2022-09-17T03:44:37;11.40;;;2.00;;
64669;SDS011;51080;51.690;5.174;2022-09-17T03:50:20;13.20;;;2.00;;
64669;SDS011;51080;51.690;5.174;2022-09-17T03:56:06;9.30;;;1.70;;
64669;SDS011;51080;51.690;5.174;2022-09-17T04:01:51;16.10;;;2.60;;
64669;SDS011;51080;51.690;5.174;2022-09-17T04:07:45;12.70;;;2.00;;
64669;SDS011;51080;51.690;5.174;2022-09-17T04:13:30;12.70;;;2.20;;
64669;SDS011;51080;51.690;5.174;2022-09-17T04:19:15;13.00;;;1.90;;
64669;SDS011;51080;51.690;5.174;2022-09-17T04:25:03;34.70;;;2.80;;
64669;SDS011;51080;51.690;5.174;2022-09-17T04:30:51;13.80;;;2.50;;
64669;SDS011;51080;51.690;5.174;2022-09-17T04:36:38;13.90;;;2.50;;
64669;SDS011;51080;51.690;5.174;2022-09-17T04:42:22;13.90;;;2.20;;
64669;SDS011;51080;51.690;5.174;2022-09-17T04:48:10;13.50;;;2.40;;
64669;SDS011;51080;51.690;5.174;2022-09-17T04:53:58;16.80;;;2.50;;
64669;SDS011;51080;51.690;5.174;2022-09-17T04:59:42;13.40;;;2.10;;
64669;SDS011;51080;51.690;5.174;2022-09-17T05:05:27;12.10;;;2.70;;
64669;SDS011;51080;51.690;5.174;2022-09-17T05:11:12;13.90;;;2.40;;
64669;SDS011;51080;51.690;5.174;2022-09-17T05:16:56;16.40;;;2.60;;
64669;SDS011;51080;51.690;5.174;2022-09-17T05:22:45;20.70;;;2.30;;
64669;SDS011;51080;51.690;5.174;2022-09-17T05:28:30;14.80;;;2.80;;
64669;SDS011;51080;51.690;5.174;2022-09-17T05:34:15;13.50;;;2.30;;
64669;SDS011;51080;51.690;5.174;2022-09-17T05:40:29;12.60;;;2.40;;
64669;SDS011;51080;51.690;5.174;2022-09-17T05:46:14;10.90;;;2.20;;
64669;SDS011;51080;51.690;5.174;2022-09-17T05:51:57;13.20;;;2.00;;
64669;SDS011;51080;51.690;5.174;2022-09-17T05:57:41;8.20;;;1.40;;
64669;SDS011;51080;51.690;5.174;2022-09-17T06:03:26;5.60;;;1.10;;
64669;SDS011;51080;51.690;5.174;2022-09-17T06:09:41;8.10;;;1.00;;
64669;SDS011;51080;51.690;5.174;2022-09-17T06:15:26;6.80;;;1.40;;
64669;SDS011;51080;51.690;5.174;2022-09-17T06:21:41;7.00;;;1.30;;
64669;SDS011;51080;51.690;5.174;2022-09-17T06:27:31;8.40;;;1.50;;
64669;SDS011;51080;51.690;5.174;2022-09-17T06:33:17;7.60;;;1.50;;
64669;SDS011;51080;51.690;5.174;2022-09-17T06:39:02;9.20;;;2.20;;
64669;SDS011;51080;51.690;5.174;2022-09-17T06:44:47;6.00;;;1.40;;
64669;SDS011;51080;51.690;5.174;2022-09-17T06:50:30;8.70;;;1.20;;
64669;SDS011;51080;51.690;5.174;2022-09-17T06:56:45;5.80;;;1.10;;
64669;SDS011;51080;51.690;5.174;2022-09-17T07:02:30;6.40;;;1.20;;
64669;SDS011;51080;51.690;5.174;2022-09-17T07:08:44;8.70;;;1.40;;
64669;SDS011;51080;51.690;5.174;2022-09-17T07:14:28;8.90;;;1.80;;
64669;SDS011;51080;51.690;5.174;2022-09-17T07:20:13;7.70;;;1.40;;
64669;SDS011;51080;51.690;5.174;2022-09-17T07:26:27;6.70;;;1.20;;
64669;SDS011;51080;51.690;5.174;2022-09-17T07:32:12;4.90;;;1.10;;
64669;SDS011;51080;51.690;5.174;2022-09-17T07:37:57;8.20;;;1.30;;
64669;SDS011;51080;51.690;5.174;2022-09-17T07:43:42;8.00;;;1.40;;
64669;SDS011;51080;51.690;5.174;2022-09-17T07:49:25;9.90;;;1.80;;
64669;SDS011;51080;51.690;5.174;2022-09-17T07:55:10;6.30;;;1.60;;
64669;SDS011;51080;51.690;5.174;2022-09-17T08:01:05;7.50;;;1.30;;
64669;SDS011;51080;51.690;5.174;2022-09-17T08:06:51;5.70;;;1.90;;
64669;SDS011;51080;51.690;5.174;2022-09-17T08:12:35;7.80;;;1.90;;
64669;SDS011;51080;51.690;5.174;2022-09-17T08:18:19;4.80;;;1.10;;
64669;SDS011;51080;51.690;5.174;2022-09-17T08:24:04;6.70;;;1.40;;
64669;SDS011;51080;51.690;5.174;2022-09-17T08:29:49;6.00;;;1.40;;
64669;SDS011;51080;51.690;5.174;2022-09-17T08:35:34;7.50;;;1.20;;
64669;SDS011;51080;51.690;5.174;2022-09-17T08:41:20;9.10;;;1.40;;
64669;SDS011;51080;51.690;5.174;2022-09-17T08:47:15;10.60;;;1.50;;
64669;SDS011;51080;51.690;5.174;2022-09-17T08:59:17;8.20;;;1.30;;
64669;SDS011;51080;51.690;5.174;2022-09-17T09:05:14;6.10;;;1.10;;
64669;SDS011;51080;51.690;5.174;2022-09-17T09:11:31;6.60;;;1.30;;
64669;SDS011;51080;51.690;5.174;2022-09-17T09:17:48;8.10;;;1.00;;
64669;SDS011;51080;51.690;5.174;2022-09-17T09:24:17;7.90;;;1.30;;
64669;SDS011;51080;51.690;5.174;2022-09-17T09:30:11;7.00;;;1.60;;
64669;SDS011;51080;51.690;5.174;2022-09-17T09:35:58;8.10;;;1.10;;
64669;SDS011;51080;51.690;5.174;2022-09-17T09:41:58;4.60;;;1.00;;
64669;SDS011;51080;51.690;5.174;2022-09-17T09:54:06;5.90;;;1.30;;
64669;SDS011;51080;51.690;5.174;2022-09-17T10:00:31;5.40;;;1.00;;
64669;SDS011;51080;51.690;5.174;2022-09-17T10:06:20;9.00;;;1.30;;
64669;SDS011;51080;51.690;5.174;2022-09-17T10:12:14;5.20;;;1.10;;
64669;SDS011;51080;51.690;5.174;2022-09-17T10:24:01;3.90;;;0.90;;
64669;SDS011;51080;51.690;5.174;2022-09-17T10:30:18;5.00;;;1.00;;
64669;SDS011;51080;51.690;5.174;2022-09-17T10:36:42;5.90;;;0.90;;
64669;SDS011;51080;51.690;5.174;2022-09-17T10:42:28;2.60;;;0.50;;
64669;SDS011;51080;51.690;5.174;2022-09-17T10:48:14;3.40;;;0.80;;
64669;SDS011;51080;51.690;5.174;2022-09-17T10:54:51;3.40;;;0.60;;
64669;SDS011;51080;51.690;5.174;2022-09-17T11:00:49;4.70;;;1.10;;
64669;SDS011;51080;51.690;5.174;2022-09-17T11:06:59;5.60;;;0.80;;
64669;SDS011;51080;51.690;5.174;2022-09-17T11:31:20;3.30;;;0.90;;
64669;SDS011;51080;51.690;5.174;2022-09-17T11:43:26;4.00;;;1.00;;
64669;SDS011;51080;51.690;5.174;2022-09-17T11:55:31;5.40;;;1.70;;
64669;SDS011;51080;51.690;5.174;2022-09-17T12:01:29;8.40;;;1.50;;
64669;SDS011;51080;51.690;5.174;2022-09-17T12:07:34;6.90;;;1.90;;
64669;SDS011;51080;51.690;5.174;2022-09-17T12:13:54;6.80;;;1.70;;
64669;SDS011;51080;51.690;5.174;2022-09-17T12:19:45;6.90;;;1.80;;
64669;SDS011;51080;51.690;5.174;2022-09-17T12:25:41;8.30;;;1.90;;
64669;SDS011;51080;51.690;5.174;2022-09-17T12:31:38;9.20;;;1.90;;
64669;SDS011;51080;51.690;5.174;2022-09-17T12:38:00;9.50;;;2.00;;
64669;SDS011;51080;51.690;5.174;2022-09-17T12:43:58;8.10;;;1.70;;
64669;SDS011;51080;51.690;5.174;2022-09-17T13:02:14;9.30;;;1.90;;
64669;SDS011;51080;51.690;5.174;2022-09-17T13:14:18;7.30;;;1.60;;
64669;SDS011;51080;51.690;5.174;2022-09-17T13:20:22;7.40;;;1.70;;
64669;SDS011;51080;51.690;5.174;2022-09-17T13:26:15;6.90;;;1.50;;
64669;SDS011;51080;51.690;5.174;2022-09-17T13:32:01;8.40;;;1.70;;
64669;SDS011;51080;51.690;5.174;2022-09-17T13:43:43;9.50;;;1.70;;
64669;SDS011;51080;51.690;5.174;2022-09-17T13:49:27;7.80;;;1.50;;
64669;SDS011;51080;51.690;5.174;2022-09-17T14:07:44;10.30;;;2.30;;
64669;SDS011;51080;51.690;5.174;2022-09-17T14:13:39;9.80;;;2.20;;
64669;SDS011;51080;51.690;5.174;2022-09-17T14:19:28;9.90;;;1.90;;
64669;SDS011;51080;51.690;5.174;2022-09-17T14:25:45;6.50;;;1.30;;
64669;SDS011;51080;51.690;5.174;2022-09-17T14:32:04;9.50;;;1.70;;
64669;SDS011;51080;51.690;5.174;2022-09-17T14:38:32;10.90;;;1.90;;
64669;SDS011;51080;51.690;5.174;2022-09-17T14:44:21;11.70;;;2.10;;
64669;SDS011;51080;51.690;5.174;2022-09-17T14:50:21;7.20;;;1.60;;
64669;SDS011;51080;51.690;5.174;2022-09-17T14:56:09;8.70;;;1.90;;
64669;SDS011;51080;51.690;5.174;2022-09-17T15:02:00;9.30;;;1.80;;
64669;SDS011;51080;51.690;5.174;2022-09-17T15:07:45;9.00;;;1.60;;
64669;SDS011;51080;51.690;5.174;2022-09-17T15:13:35;7.80;;;1.80;;
64669;SDS011;51080;51.690;5.174;2022-09-17T15:19:35;9.70;;;2.10;;
64669;SDS011;51080;51.690;5.174;2022-09-17T15:25:22;9.40;;;2.20;;
64669;SDS011;51080;51.690;5.174;2022-09-17T15:31:14;8.50;;;2.20;;
64669;SDS011;51080;51.690;5.174;2022-09-17T15:49:26;10.20;;;1.60;;
64669;SDS011;51080;51.690;5.174;2022-09-17T15:55:30;6.60;;;1.40;;
64669;SDS011;51080;51.690;5.174;2022-09-17T16:07:26;9.00;;;1.50;;
64669;SDS011;51080;51.690;5.174;2022-09-17T16:13:11;5.90;;;1.30;;
64669;SDS011;51080;51.690;5.174;2022-09-17T16:19:25;8.20;;;1.40;;
64669;SDS011;51080;51.690;5.174;2022-09-17T16:25:10;6.30;;;1.30;;
64669;SDS011;51080;51.690;5.174;2022-09-17T16:30:54;7.40;;;1.30;;
64669;SDS011;51080;51.690;5.174;2022-09-17T16:36:38;10.30;;;2.00;;
64669;SDS011;51080;51.690;5.174;2022-09-17T16:42:52;6.80;;;1.40;;
64669;SDS011;51080;51.690;5.174;2022-09-17T16:48:37;11.60;;;1.60;;
64669;SDS011;51080;51.690;5.174;2022-09-17T16:54:22;8.70;;;1.50;;
64669;SDS011;51080;51.690;5.174;2022-09-17T17:00:07;8.80;;;1.60;;
64669;SDS011;51080;51.690;5.174;2022-09-17T17:05:54;12.70;;;1.80;;
64669;SDS011;51080;51.690;5.174;2022-09-17T17:12:08;5.90;;;1.30;;
64669;SDS011;51080;51.690;5.174;2022-09-17T17:17:52;7.00;;;1.70;;
64669;SDS011;51080;51.690;5.174;2022-09-17T17:23:35;11.50;;;2.20;;
64669;SDS011;51080;51.690;5.174;2022-09-17T17:29:19;7.90;;;1.70;;
64669;SDS011;51080;51.690;5.174;2022-09-17T17:35:03;9.10;;;1.70;;
64669;SDS011;51080;51.690;5.174;2022-09-17T17:40:48;6.80;;;1.10;;
64669;SDS011;51080;51.690;5.174;2022-09-17T17:46:33;5.80;;;1.20;;
64669;SDS011;51080;51.690;5.174;2022-09-17T17:52:15;6.10;;;1.40;;
64669;SDS011;51080;51.690;5.174;2022-09-17T17:57:59;6.70;;;1.30;;
64669;SDS011;51080;51.690;5.174;2022-09-17T18:03:43;5.80;;;1.30;;
64669;SDS011;51080;51.690;5.174;2022-09-17T18:09:58;4.40;;;1.30;;
64669;SDS011;51080;51.690;5.174;2022-09-17T18:15:49;4.70;;;1.00;;
64669;SDS011;51080;51.690;5.174;2022-09-17T18:21:38;6.20;;;1.00;;
64669;SDS011;51080;51.690;5.174;2022-09-17T18:27:22;8.40;;;1.20;;
64669;SDS011;51080;51.690;5.174;2022-09-17T18:33:08;4.50;;;1.10;;
64669;SDS011;51080;51.690;5.174;2022-09-17T18:38:53;7.50;;;1.20;;
64669;SDS011;51080;51.690;5.174;2022-09-17T18:44:42;6.90;;;1.40;;
64669;SDS011;51080;51.690;5.174;2022-09-17T18:50:25;4.40;;;1.20;;
64669;SDS011;51080;51.690;5.174;2022-09-17T18:56:21;7.90;;;1.50;;
64669;SDS011;51080;51.690;5.174;2022-09-17T19:02:11;10.60;;;2.40;;
64669;SDS011;51080;51.690;5.174;2022-09-17T19:07:55;6.50;;;1.50;;
64669;SDS011;51080;51.690;5.174;2022-09-17T19:13:42;12.60;;;2.10;;
64669;SDS011;51080;51.690;5.174;2022-09-17T19:19:33;9.50;;;2.10;;
64669;SDS011;51080;51.690;5.174;2022-09-17T19:25:20;9.40;;;1.90;;
64669;SDS011;51080;51.690;5.174;2022-09-17T19:31:12;11.70;;;2.70;;
64669;SDS011;51080;51.690;5.174;2022-09-17T19:36:58;9.00;;;2.30;;
64669;SDS011;51080;51.690;5.174;2022-09-17T19:42:42;10.50;;;3.00;;
64669;SDS011;51080;51.690;5.174;2022-09-17T19:48:30;7.30;;;2.70;;
64669;SDS011;51080;51.690;5.174;2022-09-17T19:54:20;15.40;;;3.20;;
64669;SDS011;51080;51.690;5.174;2022-09-17T20:00:07;10.20;;;2.60;;
64669;SDS011;51080;51.690;5.174;2022-09-17T20:05:59;8.60;;;1.90;;
64669;SDS011;51080;51.690;5.174;2022-09-17T20:11:51;5.60;;;1.50;;
64669;SDS011;51080;51.690;5.174;2022-09-17T20:17:36;6.70;;;1.60;;
64669;SDS011;51080;51.690;5.174;2022-09-17T20:23:21;5.90;;;1.60;;
64669;SDS011;51080;51.690;5.174;2022-09-17T20:29:08;7.80;;;2.10;;
64669;SDS011;51080;51.690;5.174;2022-09-17T20:34:55;6.70;;;1.80;;
64669;SDS011;51080;51.690;5.174;2022-09-17T20:40:43;5.70;;;1.60;;
64669;SDS011;51080;51.690;5.174;2022-09-17T20:46:31;10.50;;;2.00;;
64669;SDS011;51080;51.690;5.174;2022-09-17T20:52:17;11.80;;;2.10;;
64669;SDS011;51080;51.690;5.174;2022-09-17T20:58:04;8.70;;;2.00;;
64669;SDS011;51080;51.690;5.174;2022-09-17T21:03:52;8.30;;;2.30;;
64669;SDS011;51080;51.690;5.174;2022-09-17T21:09:40;10.40;;;2.10;;
64669;SDS011;51080;51.690;5.174;2022-09-17T21:15:29;10.70;;;2.30;;
64669;SDS011;51080;51.690;5.174;2022-09-17T21:21:17;14.70;;;2.50;;
64669;SDS011;51080;51.690;5.174;2022-09-17T21:27:04;12.80;;;2.30;;
64669;SDS011;51080;51.690;5.174;2022-09-17T21:32:52;12.90;;;2.10;;
64669;SDS011;51080;51.690;5.174;2022-09-17T21:38:40;10.20;;;1.90;;
64669;SDS011;51080;51.690;5.174;2022-09-17T21:44:30;11.00;;;2.00;;
64669;SDS011;51080;51.690;5.174;2022-09-17T21:50:18;14.10;;;2.30;;
64669;SDS011;51080;51.690;5.174;2022-09-17T21:56:09;13.10;;;2.40;;
64669;SDS011;51080;51.690;5.174;2022-09-17T22:01:58;7.80;;;1.70;;
64669;SDS011;51080;51.690;5.174;2022-09-17T22:07:46;9.90;;;2.40;;
64669;SDS011;51080;51.690;5.174;2022-09-17T22:13:34;6.80;;;2.20;;
64669;SDS011;51080;51.690;5.174;2022-09-17T22:19:23;11.10;;;2.20;;
64669;SDS011;51080;51.690;5.174;2022-09-17T22:25:13;10.70;;;2.00;;
64669;SDS011;51080;51.690;5.174;2022-09-17T22:31:02;10.50;;;2.00;;
64669;SDS011;51080;51.690;5.174;2022-09-17T22:36:52;11.70;;;2.00;;
64669;SDS011;51080;51.690;5.174;2022-09-17T22:42:40;7.80;;;1.60;;
64669;SDS011;51080;51.690;5.174;2022-09-17T22:48:27;7.10;;;1.40;;
64669;SDS011;51080;51.690;5.174;2022-09-17T22:54:16;8.90;;;1.60;;
64669;SDS011;51080;51.690;5.174;2022-09-17T23:00:07;7.90;;;1.70;;
64669;SDS011;51080;51.690;5.174;2022-09-17T23:05:59;8.80;;;2.00;;
64669;SDS011;51080;51.690;5.174;2022-09-17T23:11:51;12.60;;;2.20;;
64669;SDS011;51080;51.690;5.174;2022-09-17T23:17:41;10.00;;;1.80;;
64669;SDS011;51080;51.690;5.174;2022-09-17T23:23:32;8.10;;;1.70;;
64669;SDS011;51080;51.690;5.174;2022-09-17T23:29:21;9.00;;;1.90;;
64669;SDS011;51080;51.690;5.174;2022-09-17T23:35:11;10.30;;;2.30;;
64669;SDS011;51080;51.690;5.174;2022-09-17T23:41:10;11.90;;;1.70;;
64669;SDS011;51080;51.690;5.174;2022-09-17T23:46:59;17.90;;;2.40;;
64669;SDS011;51080;51.690;5.174;2022-09-17T23:52:46;14.80;;;2.20;;
64669;SDS011;51080;51.690;5.174;2022-09-17T23:58:33;12.10;;;2.40;;
